Time;durP1;ratioP1;P1;durP2;ratioP2;P2;SDS_P1;SDS_P2;PMS_P1;PMS_P2;Temp;Humidity;BMP_temperature;BMP_pressure;BME280_temperature;BME280_humidity;BME280_pressure;Samples;Min_cycle;Max_cycle;Signal;HPM_P1;HPM_P2
2024/03/14 00:01:37;;;;;;;4.13;3.83;;;;;;;;;;6251597;22;20471;-84
2024/03/14 00:04:05;;;;;;;3.30;3.10;;;;;;;;;;6251333;22;20028;-84
2024/03/14 00:06:33;;;;;;;3.97;3.67;;;;;;;;;;6255204;22;20015;-84
2024/03/14 00:09:00;;;;;;;4.18;3.80;;;;;;;;;;6281412;22;20019;-84
2024/03/14 00:11:32;;;;;;;3.33;3.13;;;;;;;;;;6247021;23;20016;-84
2024/03/14 00:13:59;;;;;;;3.20;3.00;;;;;;;;;;6247058;23;20031;-83
2024/03/14 00:16:26;;;;;;;3.33;3.13;;;;;;;;;;6246139;23;20349;-84
2024/03/14 00:18:54;;;;;;;3.20;3.00;;;;;;;;;;6246113;23;20391;-83
2024/03/14 00:21:21;;;;;;;3.65;3.13;;;;;;;;;;6253804;23;20016;-84
2024/03/14 00:23:49;;;;;;;3.20;3.00;;;;;;;;;;6250722;23;20016;-84
2024/03/14 00:26:16;;;;;;;3.45;3.08;;;;;;;;;;6250563;22;20016;-84
2024/03/14 00:28:45;;;;;;;2.85;2.65;;;;;;;;;;6249049;23;20020;-84
2024/03/14 00:31:12;;;;;;;2.60;2.40;;;;;;;;;;6246817;23;20024;-83
2024/03/14 00:33:40;;;;;;;2.83;2.63;;;;;;;;;;6249032;23;20074;-84
2024/03/14 00:36:14;;;;;;;2.92;2.78;;;;;;;;;;6254859;22;20020;-85
2024/03/14 00:38:42;;;;;;;2.75;2.60;;;;;;;;;;6249444;22;20023;-83
2024/03/14 00:41:16;;;;;;;3.55;3.25;;;;;;;;;;6245987;23;20024;-84
2024/03/14 00:43:43;;;;;;;4.75;3.30;;;;;;;;;;6256816;22;20016;-84
2024/03/14 00:46:15;;;;;;;3.85;3.47;;;;;;;;;;6258062;23;20020;-85
2024/03/14 00:48:43;;;;;;;4.60;2.75;;;;;;;;;;6257665;23;20016;-85
2024/03/14 00:51:10;;;;;;;4.35;3.40;;;;;;;;;;6252530;23;20083;-85
2024/03/14 00:53:38;;;;;;;4.80;4.28;;;;;;;;;;6253740;22;20020;-85
2024/03/14 00:56:06;;;;;;;4.22;3.63;;;;;;;;;;6252097;23;20100;-85
2024/03/14 00:58:34;;;;;;;4.25;3.85;;;;;;;;;;6251385;23;20020;-84
2024/03/14 01:01:02;;;;;;;4.22;3.67;;;;;;;;;;6251329;23;20118;-85
2024/03/14 01:03:32;;;;;;;3.72;3.42;;;;;;;;;;6250712;23;20016;-86
2024/03/14 01:05:59;;;;;;;3.95;3.65;;;;;;;;;;6251659;23;20027;-84
2024/03/14 01:08:27;;;;;;;3.80;3.30;;;;;;;;;;6255211;22;20514;-84
2024/03/14 01:10:54;;;;;;;4.35;3.95;;;;;;;;;;6274532;22;20024;-85
2024/03/14 01:13:23;;;;;;;5.05;3.92;;;;;;;;;;6264471;22;20019;-84
2024/03/14 01:15:50;;;;;;;4.05;3.75;;;;;;;;;;6265109;22;20034;-85
2024/03/14 01:18:17;;;;;;;3.88;3.47;;;;;;;;;;6258293;22;20026;-84
2024/03/14 01:20:45;;;;;;;4.07;3.67;;;;;;;;;;6256612;22;20390;-85
2024/03/14 01:23:12;;;;;;;4.10;3.47;;;;;;;;;;6252660;22;20027;-84
2024/03/14 01:25:40;;;;;;;3.60;3.25;;;;;;;;;;6277584;22;20024;-84
2024/03/14 01:28:08;;;;;;;3.67;3.13;;;;;;;;;;6250827;22;20321;-84
2024/03/14 01:30:35;;;;;;;4.15;3.20;;;;;;;;;;6250200;22;20012;-84
2024/03/14 01:33:02;;;;;;;5.32;3.67;;;;;;;;;;6250771;22;20020;-83
2024/03/14 01:35:30;;;;;;;4.72;3.30;;;;;;;;;;6251839;22;20023;-84
2024/03/14 01:37:59;;;;;;;3.08;2.88;;;;;;;;;;6278727;22;20027;-83
2024/03/14 01:40:27;;;;;;;4.03;3.05;;;;;;;;;;6251261;22;20356;-84
2024/03/14 01:42:55;;;;;;;3.30;3.10;;;;;;;;;;6250700;22;20026;-84
2024/03/14 01:45:22;;;;;;;3.50;3.17;;;;;;;;;;6250213;22;20016;-83
2024/03/14 01:47:50;;;;;;;3.15;2.85;;;;;;;;;;6277290;22;20092;-83
2024/03/14 01:50:17;;;;;;;2.95;2.83;;;;;;;;;;6250158;22;20051;-83
2024/03/14 01:52:44;;;;;;;4.47;2.88;;;;;;;;;;6249769;22;20069;-84
2024/03/14 01:55:13;;;;;;;3.15;2.92;;;;;;;;;;6250102;22;20030;-84
2024/03/14 01:57:42;;;;;;;3.20;2.92;;;;;;;;;;6250368;22;20464;-83
2024/03/14 02:00:13;;;;;;;2.60;2.50;;;;;;;;;;6250407;22;20333;-83
2024/03/14 02:02:41;;;;;;;5.32;3.33;;;;;;;;;;6250019;22;20030;-84
2024/03/14 02:05:23;;;;;;;3.13;2.47;;;;;;;;;;6249652;22;20038;-83
2024/03/14 02:07:50;;;;;;;3.22;2.95;;;;;;;;;;6249918;22;20483;-83
2024/03/14 02:10:23;;;;;;;3.35;3.00;;;;;;;;;;6250163;22;20070;-83
2024/03/14 02:12:54;;;;;;;8.57;3.10;;;;;;;;;;6249781;22;20386;-84
2024/03/14 02:15:23;;;;;;;5.20;2.50;;;;;;;;;;6250451;22;20341;-83
2024/03/14 02:17:51;;;;;;;3.15;2.85;;;;;;;;;;6250128;22;20090;-84
2024/03/14 02:20:20;;;;;;;2.50;2.30;;;;;;;;;;6250116;22;20019;-84
2024/03/14 02:22:48;;;;;;;2.42;2.28;;;;;;;;;;6249920;22;20023;-84
2024/03/14 02:25:16;;;;;;;3.38;2.38;;;;;;;;;;6250048;22;20020;-83
2024/03/14 02:27:43;;;;;;;2.50;2.30;;;;;;;;;;6250271;22;20016;-83
2024/03/14 02:30:11;;;;;;;2.55;2.35;;;;;;;;;;6249597;22;20024;-83
2024/03/14 02:32:38;;;;;;;2.83;2.47;;;;;;;;;;6250300;22;20081;-84
2024/03/14 02:35:06;;;;;;;3.40;3.08;;;;;;;;;;6249770;22;20103;-83
2024/03/14 02:37:33;;;;;;;2.33;2.13;;;;;;;;;;6249693;22;20016;-83
2024/03/14 02:40:00;;;;;;;2.92;2.33;;;;;;;;;;6249580;22;20032;-84
2024/03/14 02:42:27;;;;;;;2.42;2.30;;;;;;;;;;6249775;22;20024;-83
2024/03/14 02:44:55;;;;;;;2.60;2.40;;;;;;;;;;6249907;22;20019;-83
2024/03/14 02:47:22;;;;;;;3.70;2.85;;;;;;;;;;6250092;22;20016;-83
2024/03/14 02:49:51;;;;;;;3.35;2.85;;;;;;;;;;6249538;22;20463;-84
2024/03/14 02:52:18;;;;;;;2.45;2.35;;;;;;;;;;6249801;22;20447;-84
2024/03/14 02:54:45;;;;;;;2.70;2.60;;;;;;;;;;6276099;22;20087;-82
2024/03/14 02:57:13;;;;;;;3.33;3.03;;;;;;;;;;6249326;22;20122;-83
2024/03/14 02:59:40;;;;;;;3.08;2.88;;;;;;;;;;6249351;22;20024;-84
2024/03/14 03:02:10;;;;;;;3.95;3.63;;;;;;;;;;6249133;22;20077;-84
2024/03/14 03:04:38;;;;;;;3.95;3.67;;;;;;;;;;6250414;22;20020;-84
2024/03/14 03:07:06;;;;;;;4.10;3.35;;;;;;;;;;6249678;22;20397;-84
2024/03/14 03:09:38;;;;;;;4.18;3.88;;;;;;;;;;6250321;22;20078;-84
2024/03/14 03:12:05;;;;;;;5.20;3.65;;;;;;;;;;6250209;22;20023;-84
2024/03/14 03:14:33;;;;;;;3.08;2.88;;;;;;;;;;6277302;22;20068;-84
2024/03/14 03:17:00;;;;;;;3.67;3.38;;;;;;;;;;6250359;22;20077;-84
2024/03/14 03:19:27;;;;;;;3.60;3.40;;;;;;;;;;6250925;22;20020;-84
2024/03/14 03:21:56;;;;;;;3.60;3.30;;;;;;;;;;6250481;22;20024;-83
2024/03/14 03:24:24;;;;;;;3.20;3.00;;;;;;;;;;6250311;22;20329;-84
2024/03/14 03:26:51;;;;;;;3.63;3.33;;;;;;;;;;6276946;22;20447;-84
2024/03/14 03:29:20;;;;;;;3.95;3.28;;;;;;;;;;6250196;22;20019;-82
2024/03/14 03:31:47;;;;;;;4.10;3.80;;;;;;;;;;6249705;22;20019;-83
2024/03/14 03:34:14;;;;;;;4.47;4.07;;;;;;;;;;6249107;22;20463;-83
2024/03/14 03:36:46;;;;;;;3.95;3.72;;;;;;;;;;6276481;22;20019;-82
2024/03/14 03:39:13;;;;;;;4.07;3.70;;;;;;;;;;6249633;22;20096;-82
2024/03/14 03:41:41;;;;;;;4.18;3.78;;;;;;;;;;6275859;22;20472;-83
2024/03/14 03:44:08;;;;;;;3.22;2.97;;;;;;;;;;6275646;22;20016;-82
2024/03/14 03:46:42;;;;;;;3.35;3.10;;;;;;;;;;6277962;22;20023;-82
2024/03/14 03:49:09;;;;;;;4.25;3.58;;;;;;;;;;6249887;22;20402;-83
2024/03/14 03:51:36;;;;;;;5.85;4.00;;;;;;;;;;6249416;22;20054;-82
2024/03/14 03:54:04;;;;;;;4.30;3.90;;;;;;;;;;6276184;22;20015;-83
2024/03/14 03:56:31;;;;;;;3.70;3.50;;;;;;;;;;6278681;22;20023;-85
2024/03/14 03:58:58;;;;;;;3.33;3.13;;;;;;;;;;6283225;22;20024;-85
2024/03/14 04:01:27;;;;;;;3.42;3.13;;;;;;;;;;6256172;22;20020;-85
2024/03/14 04:03:55;;;;;;;3.35;3.13;;;;;;;;;;6255135;22;20402;-84
2024/03/14 04:06:23;;;;;;;4.53;3.42;;;;;;;;;;6255039;22;20408;-84
2024/03/14 04:08:52;;;;;;;5.38;3.60;;;;;;;;;;6254542;22;20012;-85
2024/03/14 04:11:21;;;;;;;3.45;3.20;;;;;;;;;;6255276;22;20020;-85
2024/03/14 04:13:48;;;;;;;3.95;3.15;;;;;;;;;;6256019;22;20043;-85
2024/03/14 04:16:15;;;;;;;3.00;2.80;;;;;;;;;;6253675;22;20024;-83
2024/03/14 04:18:44;;;;;;;3.63;3.22;;;;;;;;;;6251825;22;20026;-83
2024/03/14 04:21:15;;;;;;;3.38;3.10;;;;;;;;;;6251675;22;20089;-84
2024/03/14 04:23:43;;;;;;;3.95;3.15;;;;;;;;;;6251273;22;20046;-83
2024/03/14 04:26:15;;;;;;;3.95;3.25;;;;;;;;;;6251883;22;20074;-83
2024/03/14 04:28:43;;;;;;;6.55;3.40;;;;;;;;;;6253102;22;20026;-85
2024/03/14 04:31:11;;;;;;;3.08;2.80;;;;;;;;;;6280870;22;20023;-85
2024/03/14 04:33:39;;;;;;;4.32;3.03;;;;;;;;;;6255265;22;20022;-84
2024/03/14 04:36:08;;;;;;;2.80;2.58;;;;;;;;;;6255036;22;20026;-85
2024/03/14 04:38:37;;;;;;;1.95;1.85;;;;;;;;;;6254537;22;20023;-85
2024/03/14 04:41:14;;;;;;;2.60;2.42;;;;;;;;;;6254515;22;20028;-83
2024/03/14 04:43:43;;;;;;;3.05;2.85;;;;;;;;;;6254056;22;20055;-84
2024/03/14 04:46:11;;;;;;;2.90;2.70;;;;;;;;;;6252980;22;20478;-83
2024/03/14 04:48:38;;;;;;;4.65;4.20;;;;;;;;;;6253397;22;20352;-84
2024/03/14 04:51:05;;;;;;;4.93;3.63;;;;;;;;;;6253735;22;20098;-83
2024/03/14 04:53:35;;;;;;;3.08;2.88;;;;;;;;;;6280716;22;20042;-84
2024/03/14 04:56:03;;;;;;;3.60;3.30;;;;;;;;;;6252618;22;20031;-82
2024/03/14 04:58:30;;;;;;;3.42;3.15;;;;;;;;;;6252577;22;20455;-85
2024/03/14 05:01:02;;;;;;;2.95;2.75;;;;;;;;;;6260250;22;20475;-83
2024/03/14 05:03:30;;;;;;;3.88;3.22;;;;;;;;;;6252588;22;20078;-84
2024/03/14 05:05:58;;;;;;;3.40;3.10;;;;;;;;;;6252171;22;20020;-85
2024/03/14 05:08:26;;;;;;;4.03;3.72;;;;;;;;;;6279284;22;20016;-83
2024/03/14 05:10:53;;;;;;;3.85;3.50;;;;;;;;;;6279135;22;20016;-84
2024/03/14 05:13:20;;;;;;;4.68;3.78;;;;;;;;;;6251969;22;20016;-85
2024/03/14 05:15:49;;;;;;;5.45;3.08;;;;;;;;;;6252201;22;20616;-85
2024/03/14 05:18:16;;;;;;;2.85;2.65;;;;;;;;;;6278384;22;20022;-84
2024/03/14 05:20:44;;;;;;;5.47;3.17;;;;;;;;;;6251677;22;20027;-84
2024/03/14 05:23:11;;;;;;;3.13;2.80;;;;;;;;;;6251372;22;20028;-84
2024/03/14 05:25:38;;;;;;;2.60;2.40;;;;;;;;;;6278541;22;20026;-84
2024/03/14 05:28:06;;;;;;;3.22;2.70;;;;;;;;;;6278275;22;20023;-84
2024/03/14 05:30:33;;;;;;;3.47;3.28;;;;;;;;;;6251572;22;20015;-82
2024/03/14 05:33:01;;;;;;;2.90;2.70;;;;;;;;;;6278432;22;20046;-85
2024/03/14 05:35:28;;;;;;;3.60;3.05;;;;;;;;;;6251906;22;20451;-83
2024/03/14 05:37:56;;;;;;;4.07;3.67;;;;;;;;;;6251363;22;20016;-83
2024/03/14 05:40:23;;;;;;;4.32;3.33;;;;;;;;;;6251297;22;20081;-84
2024/03/14 05:42:52;;;;;;;3.75;3.45;;;;;;;;;;6250909;22;20460;-84
2024/03/14 05:45:19;;;;;;;3.00;2.80;;;;;;;;;;6251087;22;20015;-85
2024/03/14 05:47:48;;;;;;;2.88;2.67;;;;;;;;;;6251140;22;20020;-82
2024/03/14 05:50:15;;;;;;;2.63;2.45;;;;;;;;;;6250005;22;20016;-83
2024/03/14 05:52:43;;;;;;;2.67;2.47;;;;;;;;;;6277195;22;20050;-83
2024/03/14 05:55:10;;;;;;;3.00;2.80;;;;;;;;;;6250528;22;20027;-84
2024/03/14 05:57:38;;;;;;;2.72;2.50;;;;;;;;;;6250790;22;20352;-83
2024/03/14 06:00:09;;;;;;;3.20;3.00;;;;;;;;;;6250090;22;20030;-83
2024/03/14 06:02:37;;;;;;;3.63;2.60;;;;;;;;;;6277922;22;20085;-82
2024/03/14 06:05:04;;;;;;;2.60;2.40;;;;;;;;;;6252499;22;20023;-85
2024/03/14 06:07:32;;;;;;;3.25;2.95;;;;;;;;;;6251256;22;20024;-84
2024/03/14 06:09:59;;;;;;;5.55;4.85;;;;;;;;;;6251289;22;20024;-84
2024/03/14 06:12:26;;;;;;;7.03;5.68;;;;;;;;;;6251977;22;20023;-83
2024/03/14 06:14:54;;;;;;;3.13;2.85;;;;;;;;;;6250782;22;20020;-83
2024/03/14 06:17:21;;;;;;;2.35;2.25;;;;;;;;;;6250679;22;20050;-83
2024/03/14 06:19:49;;;;;;;3.22;3.03;;;;;;;;;;6250897;22;20016;-84
2024/03/14 06:22:16;;;;;;;9.15;7.57;;;;;;;;;;6251511;22;20027;-85
2024/03/14 06:24:43;;;;;;;10.52;9.43;;;;;;;;;;6278508;22;20019;-84
2024/03/14 06:27:14;;;;;;;7.22;6.38;;;;;;;;;;6251960;22;20015;-85
2024/03/14 06:29:41;;;;;;;6.78;6.15;;;;;;;;;;6251974;22;20191;-84
2024/03/14 06:32:09;;;;;;;4.68;4.28;;;;;;;;;;6277557;22;20055;-84
2024/03/14 06:34:37;;;;;;;2.80;2.60;;;;;;;;;;6250668;22;20012;-84
2024/03/14 06:37:04;;;;;;;2.40;2.22;;;;;;;;;;6251239;22;20027;-84
2024/03/14 06:39:32;;;;;;;9.25;5.75;;;;;;;;;;6252996;22;20031;-84
2024/03/14 06:42:04;;;;;;;20.67;14.88;;;;;;;;;;6255024;22;20058;-83
2024/03/14 06:44:32;;;;;;;7.07;4.07;;;;;;;;;;6252114;22;20019;-84
2024/03/14 06:46:59;;;;;;;7.72;5.00;;;;;;;;;;6278385;22;20019;-84
2024/03/14 06:49:26;;;;;;;8.93;5.15;;;;;;;;;;6279526;22;20027;-84
2024/03/14 06:51:56;;;;;;;9.27;6.43;;;;;;;;;;6251365;22;20020;-83
2024/03/14 06:54:24;;;;;;;15.88;10.85;;;;;;;;;;6252086;22;20028;-84
2024/03/14 06:56:53;;;;;;;15.77;11.20;;;;;;;;;;6278412;22;20035;-83
2024/03/14 06:59:20;;;;;;;15.20;10.15;;;;;;;;;;6254881;22;20043;-85
2024/03/14 07:01:48;;;;;;;11.35;8.30;;;;;;;;;;6258614;22;20019;-84
2024/03/14 07:04:16;;;;;;;8.20;6.13;;;;;;;;;;6254892;22;20022;-85
2024/03/14 07:06:43;;;;;;;5.30;4.03;;;;;;;;;;6254706;22;20024;-85
2024/03/14 07:09:17;;;;;;;5.75;4.65;;;;;;;;;;6254109;22;20015;-85
2024/03/14 07:11:46;;;;;;;6.05;4.32;;;;;;;;;;6227577;22;20015;-84
2024/03/14 07:14:15;;;;;;;4.40;4.00;;;;;;;;;;6279178;22;20074;-84
2024/03/14 07:16:44;;;;;;;5.43;4.68;;;;;;;;;;6260089;22;20031;-85
2024/03/14 07:19:11;;;;;;;4.70;3.75;;;;;;;;;;6277161;22;20012;-84
2024/03/14 07:21:39;;;;;;;4.00;3.70;;;;;;;;;;6288831;22;20054;-84
2024/03/14 07:24:06;;;;;;;3.45;3.15;;;;;;;;;;6255579;22;20028;-84
2024/03/14 07:26:37;;;;;;;4.28;3.58;;;;;;;;;;6285672;22;20043;-85
2024/03/14 07:29:05;;;;;;;2.97;2.78;;;;;;;;;;6259563;22;20081;-85
2024/03/14 07:31:34;;;;;;;2.88;2.67;;;;;;;;;;6257905;22;20106;-85
2024/03/14 07:34:06;;;;;;;2.10;2.00;;;;;;;;;;6256957;22;20531;-84
2024/03/14 07:36:36;;;;;;;2.13;2.00;;;;;;;;;;6283321;22;20024;-85
2024/03/14 07:39:06;;;;;;;2.50;2.10;;;;;;;;;;6253999;22;20031;-86
2024/03/14 07:41:33;;;;;;;3.92;2.35;;;;;;;;;;6253859;22;20020;-85
2024/03/14 07:44:00;;;;;;;3.53;2.53;;;;;;;;;;6280932;22;20400;-85
2024/03/14 07:46:51;;;;;;;2.80;2.60;;;;;;;;;;6285705;22;20069;-83
2024/03/14 07:49:18;;;;;;;3.05;2.50;;;;;;;;;;6262827;22;20046;-86
2024/03/14 07:51:46;;;;;;;3.10;2.80;;;;;;;;;;6265287;22;20038;-84
2024/03/14 07:54:14;;;;;;;2.80;2.60;;;;;;;;;;6261019;22;20046;-86
2024/03/14 07:56:43;;;;;;;3.45;2.50;;;;;;;;;;6260606;22;20030;-86
2024/03/14 07:59:10;;;;;;;2.97;2.67;;;;;;;;;;6259879;22;20042;-84
2024/03/14 08:01:38;;;;;;;3.00;2.78;;;;;;;;;;6285510;22;20024;-85
2024/03/14 08:04:06;;;;;;;3.00;2.80;;;;;;;;;;6260624;22;20444;-85
2024/03/14 08:06:39;;;;;;;3.28;3.03;;;;;;;;;;6259539;22;20030;-85
2024/03/14 08:09:07;;;;;;;3.60;3.25;;;;;;;;;;6257124;22;20020;-85
2024/03/14 08:11:35;;;;;;;2.97;2.78;;;;;;;;;;6254554;23;20483;-85
2024/03/14 08:14:06;;;;;;;3.50;2.78;;;;;;;;;;6255074;23;20050;-85
2024/03/14 08:16:35;;;;;;;3.40;2.25;;;;;;;;;;6250964;23;20066;-84
2024/03/14 08:19:09;;;;;;;3.95;3.05;;;;;;;;;;6255213;23;20054;-85
2024/03/14 08:21:37;;;;;;;3.85;3.30;;;;;;;;;;6259634;23;20074;-85
2024/03/14 08:24:11;;;;;;;3.08;2.88;;;;;;;;;;6262763;22;20043;-84
2024/03/14 08:26:40;;;;;;;3.70;3.40;;;;;;;;;;6264351;23;20515;-85
2024/03/14 08:29:10;;;;;;;3.95;3.30;;;;;;;;;;6263311;23;20017;-85
2024/03/14 08:31:41;;;;;;;3.85;3.55;;;;;;;;;;6257483;23;20020;-85
2024/03/14 08:34:08;;;;;;;4.40;3.95;;;;;;;;;;6259535;23;20452;-84
2024/03/14 08:36:42;;;;;;;4.18;3.53;;;;;;;;;;6260551;23;20099;-85
2024/03/14 08:39:12;;;;;;;3.70;3.42;;;;;;;;;;6262871;22;20091;-84
2024/03/14 08:41:41;;;;;;;3.60;3.30;;;;;;;;;;6263885;22;20048;-85
2024/03/14 08:44:11;;;;;;;3.97;3.67;;;;;;;;;;6261047;22;20020;-83
2024/03/14 08:46:38;;;;;;;5.75;5.25;;;;;;;;;;6258066;23;20013;-84
2024/03/14 08:49:06;;;;;;;4.05;3.75;;;;;;;;;;6260915;23;20020;-84
2024/03/14 08:51:40;;;;;;;3.40;3.20;;;;;;;;;;6261872;23;20020;-84
2024/03/14 08:54:33;;;;;;;3.88;3.58;;;;;;;;;;6259279;23;20016;-84
2024/03/14 08:57:01;;;;;;;3.55;3.25;;;;;;;;;;6259949;22;20024;-83
2024/03/14 08:59:35;;;;;;;3.70;3.40;;;;;;;;;;6257516;22;20038;-83
2024/03/14 09:02:09;;;;;;;4.70;4.22;;;;;;;;;;6261252;23;20344;-85
2024/03/14 09:04:46;;;;;;;3.72;3.42;;;;;;;;;;6260501;23;20020;-84
2024/03/14 09:07:15;;;;;;;4.10;3.70;;;;;;;;;;6261916;23;20044;-85
2024/03/14 09:09:44;;;;;;;4.35;3.95;;;;;;;;;;6261990;23;20023;-84
2024/03/14 09:12:17;;;;;;;4.38;4.00;;;;;;;;;;6256513;23;20560;-84
2024/03/14 09:14:44;;;;;;;;;;;;;;;;;;6254997;23;20016;-85
2024/03/14 09:17:15;;;;;;;4.63;4.22;;;;;;;;;;6253596;23;19926;-84
2024/03/14 09:19:44;;;;;;;4.15;3.85;;;;;;;;;;6255129;23;20020;-85
2024/03/14 09:22:11;;;;;;;3.80;3.50;;;;;;;;;;6254054;23;20024;-84
2024/03/14 09:24:40;;;;;;;5.40;4.07;;;;;;;;;;6254717;23;20008;-84
2024/03/14 09:27:07;;;;;;;5.78;5.25;;;;;;;;;;6260101;23;20027;-84
2024/03/14 09:29:34;;;;;;;7.90;7.07;;;;;;;;;;6256341;23;20020;-84
2024/03/14 09:32:04;;;;;;;7.63;5.10;;;;;;;;;;6253755;22;20099;-85
2024/03/14 09:34:38;;;;;;;6.55;5.05;;;;;;;;;;6233152;23;20441;-84
2024/03/14 09:37:05;;;;;;;6.10;4.47;;;;;;;;;;6259160;23;20051;-84
2024/03/14 09:39:35;;;;;;;8.07;4.88;;;;;;;;;;6259571;23;20028;-84
2024/03/14 09:42:05;;;;;;;5.25;4.75;;;;;;;;;;6273671;22;20084;-83
2024/03/14 09:44:34;;;;;;;8.13;4.57;;;;;;;;;;6264038;22;20024;-85
2024/03/14 09:47:10;;;;;;;6.78;4.25;;;;;;;;;;6265884;23;20020;-84
2024/03/14 09:49:38;;;;;;;3.20;3.00;;;;;;;;;;6264083;23;20047;-85
2024/03/14 09:52:06;;;;;;;3.65;3.35;;;;;;;;;;6262939;23;20445;-86
2024/03/14 09:54:34;;;;;;;3.53;3.20;;;;;;;;;;6260804;22;20468;-85
2024/03/14 09:57:04;;;;;;;10.40;3.45;;;;;;;;;;6258183;23;20016;-87
2024/03/14 09:59:46;;;;;;;6.45;2.63;;;;;;;;;;6264750;23;20020;-84
2024/03/14 10:02:17;;;;;;;3.33;3.03;;;;;;;;;;6258170;23;20091;-85
2024/03/14 10:04:45;;;;;;;3.50;3.20;;;;;;;;;;6252985;23;20056;-85
2024/03/14 10:07:14;;;;;;;3.53;3.22;;;;;;;;;;6249543;23;20016;-85
2024/03/14 10:09:48;;;;;;;3.30;3.03;;;;;;;;;;6254042;23;20016;-85
2024/03/14 10:12:21;;;;;;;8.38;4.45;;;;;;;;;;6249618;23;20368;-84
2024/03/14 10:15:03;;;;;;;6.35;5.75;;;;;;;;;;6249962;23;20023;-84
2024/03/14 10:17:33;;;;;;;10.27;7.65;;;;;;;;;;6251031;22;20019;-84
2024/03/14 10:20:00;;;;;;;3.50;3.00;;;;;;;;;;6247745;23;20511;-85
2024/03/14 10:22:28;;;;;;;3.15;2.85;;;;;;;;;;6254109;23;20184;-83
2024/03/14 10:25:09;;;;;;;2.65;2.28;;;;;;;;;;6250911;23;20016;-84
2024/03/14 10:27:44;;;;;;;2.97;2.65;;;;;;;;;;6255787;22;20472;-84
2024/03/14 10:30:28;;;;;;;5.22;2.70;;;;;;;;;;6250385;23;20024;-85
2024/03/14 10:32:56;;;;;;;3.25;2.95;;;;;;;;;;6250449;23;20020;-84
2024/03/14 10:35:25;;;;;;;2.97;2.70;;;;;;;;;;6250872;23;20119;-84
2024/03/14 10:37:57;;;;;;;3.33;3.13;;;;;;;;;;6253507;23;20020;-84
2024/03/14 10:40:30;;;;;;;3.92;3.55;;;;;;;;;;6251012;23;20082;-84
2024/03/14 10:42:57;;;;;;;4.82;3.55;;;;;;;;;;6248577;23;20091;-85
2024/03/14 10:45:26;;;;;;;4.72;3.95;;;;;;;;;;6250575;23;20019;-85
2024/03/14 10:47:56;;;;;;;5.75;5.03;;;;;;;;;;6253226;23;20012;-84
2024/03/14 10:50:26;;;;;;;5.03;4.50;;;;;;;;;;6251474;23;20023;-84
2024/03/14 10:52:55;;;;;;;4.28;3.90;;;;;;;;;;6252845;23;20068;-85
2024/03/14 10:55:23;;;;;;;5.40;4.90;;;;;;;;;;6249645;23;20012;-85
2024/03/14 10:57:51;;;;;;;7.65;5.45;;;;;;;;;;6251163;23;20031;-83
2024/03/14 11:00:21;;;;;;;6.07;4.32;;;;;;;;;;6251821;22;20016;-85
2024/03/14 11:02:50;;;;;;;7.38;5.20;;;;;;;;;;6251000;22;20494;-84
2024/03/14 11:05:22;;;;;;;10.63;7.38;;;;;;;;;;6250795;23;20095;-84
2024/03/14 11:08:00;;;;;;;9.63;6.00;;;;;;;;;;6249797;23;20393;-85
2024/03/14 11:10:28;;;;;;;8.15;5.60;;;;;;;;;;6249261;23;20032;-83
2024/03/14 11:13:02;;;;;;;8.35;6.05;;;;;;;;;;6247206;23;20016;-86
2024/03/14 11:15:30;;;;;;;8.02;6.05;;;;;;;;;;6250835;23;20020;-85
2024/03/14 11:18:01;;;;;;;7.03;5.93;;;;;;;;;;6249905;23;20036;-85
2024/03/14 11:20:32;;;;;;;8.23;6.05;;;;;;;;;;6250759;22;20016;-85
2024/03/14 11:23:03;;;;;;;6.70;5.60;;;;;;;;;;6248200;22;20020;-85
2024/03/14 11:25:31;;;;;;;7.78;5.55;;;;;;;;;;6247530;22;20024;-83
2024/03/14 11:27:59;;;;;;;7.18;6.47;;;;;;;;;;6245437;23;20062;-84
2024/03/14 11:30:28;;;;;;;9.98;6.90;;;;;;;;;;6247089;22;20016;-85
2024/03/14 11:33:13;;;;;;;10.95;6.80;;;;;;;;;;6246048;23;20015;-84
2024/03/14 11:35:43;;;;;;;8.15;6.47;;;;;;;;;;6246653;22;20039;-84
2024/03/14 11:38:20;;;;;;;8.57;6.55;;;;;;;;;;6245291;23;20530;-84
2024/03/14 11:40:54;;;;;;;7.22;5.80;;;;;;;;;;6246297;22;20017;-84
2024/03/14 11:43:26;;;;;;;6.40;5.30;;;;;;;;;;6245407;23;20104;-84
2024/03/14 11:45:55;;;;;;;9.50;5.75;;;;;;;;;;6245223;23;20024;-84
2024/03/14 11:48:23;;;;;;;8.20;5.97;;;;;;;;;;6244826;23;20016;-84
2024/03/14 11:50:52;;;;;;;6.20;5.28;;;;;;;;;;6244366;23;20479;-84
2024/03/14 11:53:22;;;;;;;5.80;5.22;;;;;;;;;;6245618;23;20070;-84
2024/03/14 11:55:52;;;;;;;5.60;5.10;;;;;;;;;;6246635;22;20023;-84
2024/03/14 11:58:32;;;;;;;5.17;4.67;;;;;;;;;;6244796;23;20022;-84
2024/03/14 12:01:00;;;;;;;5.40;4.32;;;;;;;;;;6244695;23;20024;-84
2024/03/14 12:03:28;;;;;;;4.03;3.63;;;;;;;;;;6244637;23;20024;-84
2024/03/14 12:05:57;;;;;;;4.80;3.90;;;;;;;;;;6245173;23;20016;-83
2024/03/14 12:08:25;;;;;;;4.95;4.45;;;;;;;;;;6246351;23;20031;-85
2024/03/14 12:10:53;;;;;;;4.60;3.60;;;;;;;;;;6245332;22;20024;-85
2024/03/14 12:13:26;;;;;;;3.47;3.22;;;;;;;;;;6251117;22;20020;-84
2024/03/14 12:15:58;;;;;;;3.42;3.13;;;;;;;;;;6251024;22;20019;-84
2024/03/14 12:18:25;;;;;;;3.70;3.05;;;;;;;;;;6276487;22;20023;-84
2024/03/14 12:20:53;;;;;;;4.65;3.10;;;;;;;;;;6249726;22;20020;-84
2024/03/14 12:23:24;;;;;;;3.58;3.28;;;;;;;;;;6276990;22;20095;-85
2024/03/14 12:25:54;;;;;;;8.07;3.50;;;;;;;;;;6277167;22;20023;-84
2024/03/14 12:28:23;;;;;;;3.05;2.75;;;;;;;;;;6276305;22;20012;-85
2024/03/14 12:31:00;;;;;;;3.58;2.90;;;;;;;;;;6250658;22;20022;-84
2024/03/14 12:33:28;;;;;;;5.70;2.78;;;;;;;;;;6279479;22;20016;-84
2024/03/14 12:35:56;;;;;;;5.10;2.63;;;;;;;;;;6278773;22;20351;-81
2024/03/14 12:38:24;;;;;;;4.82;3.05;;;;;;;;;;6279530;22;20023;-83
2024/03/14 12:40:57;;;;;;;2.90;2.70;;;;;;;;;;6252567;22;20020;-84
2024/03/14 12:43:30;;;;;;;2.55;2.40;;;;;;;;;;6252074;22;20472;-84
2024/03/14 12:46:00;;;;;;;2.72;2.50;;;;;;;;;;6279958;22;20102;-84
2024/03/14 12:48:28;;;;;;;5.38;2.75;;;;;;;;;;6253495;22;20020;-83
2024/03/14 12:51:09;;;;;;;3.05;2.80;;;;;;;;;;6279124;22;20073;-84
2024/03/14 12:53:37;;;;;;;3.10;2.85;;;;;;;;;;6252324;22;20020;-84
2024/03/14 12:56:04;;;;;;;3.30;2.63;;;;;;;;;;6278425;22;20016;-84
2024/03/14 12:58:32;;;;;;;4.78;2.90;;;;;;;;;;6251061;22;20019;-84
2024/03/14 13:01:00;;;;;;;2.83;2.63;;;;;;;;;;6254908;22;20023;-85
2024/03/14 13:03:29;;;;;;;4.22;2.60;;;;;;;;;;6250688;22;20026;-84
2024/03/14 13:05:57;;;;;;;2.42;2.22;;;;;;;;;;6250910;22;20087;-83
2024/03/14 13:08:25;;;;;;;4.07;3.25;;;;;;;;;;6251146;22;20086;-82
2024/03/14 13:11:08;;;;;;;3.15;2.85;;;;;;;;;;6250256;22;20043;-82
2024/03/14 13:13:39;;;;;;;3.63;3.33;;;;;;;;;;6277139;22;20032;-84
2024/03/14 13:16:21;;;;;;;4.13;2.40;;;;;;;;;;6277587;22;20333;-84
2024/03/14 13:18:55;;;;;;;3.25;2.95;;;;;;;;;;6278040;22;20024;-84
2024/03/14 13:21:26;;;;;;;3.25;2.35;;;;;;;;;;6249520;22;20024;-85
2024/03/14 13:23:53;;;;;;;2.65;2.55;;;;;;;;;;6248369;22;20019;-85
2024/03/14 13:26:23;;;;;;;4.90;2.55;;;;;;;;;;6250522;22;20023;-83
2024/03/14 13:28:53;;;;;;;3.13;2.92;;;;;;;;;;6277341;22;20026;-85
2024/03/14 13:31:25;;;;;;;9.85;2.80;;;;;;;;;;6250347;22;20047;-86
2024/03/14 13:33:54;;;;;;;6.05;2.40;;;;;;;;;;6248622;22;20020;-85
2024/03/14 13:36:21;;;;;;;7.20;3.28;;;;;;;;;;6249932;22;20016;-85
2024/03/14 13:38:49;;;;;;;6.45;2.80;;;;;;;;;;6276520;22;20037;-84
2024/03/14 13:41:19;;;;;;;4.85;3.25;;;;;;;;;;6249674;22;20027;-85
2024/03/14 13:43:48;;;;;;;4.00;3.00;;;;;;;;;;6250355;22;20023;-86
2024/03/14 13:46:20;;;;;;;6.88;3.42;;;;;;;;;;6250195;22;20024;-85
2024/03/14 13:48:47;;;;;;;5.57;3.38;;;;;;;;;;6251670;22;20020;-86
2024/03/14 13:51:17;;;;;;;5.47;3.72;;;;;;;;;;6251068;22;20079;-85
2024/03/14 13:53:47;;;;;;;3.65;3.30;;;;;;;;;;6251274;22;20047;-88
2024/03/14 13:56:16;;;;;;;4.07;3.45;;;;;;;;;;6251098;22;20019;-85
2024/03/14 13:58:46;;;;;;;3.95;3.53;;;;;;;;;;6251316;22;20051;-85
2024/03/14 14:01:19;;;;;;;4.60;3.38;;;;;;;;;;6251273;22;20102;-84
2024/03/14 14:03:47;;;;;;;4.65;3.38;;;;;;;;;;6250465;22;20468;-84
2024/03/14 14:06:16;;;;;;;4.53;3.80;;;;;;;;;;6250972;22;20023;-83
2024/03/14 14:08:44;;;;;;;5.03;3.42;;;;;;;;;;6250879;22;20347;-85
2024/03/14 14:11:13;;;;;;;3.42;3.13;;;;;;;;;;6250011;22;20023;-85
2024/03/14 14:13:40;;;;;;;3.17;2.97;;;;;;;;;;6250011;22;20016;-85
2024/03/14 14:16:08;;;;;;;4.75;3.70;;;;;;;;;;6250736;22;20019;-85
2024/03/14 14:18:36;;;;;;;4.13;3.72;;;;;;;;;;6278277;22;20019;-84
2024/03/14 14:21:03;;;;;;;4.75;4.25;;;;;;;;;;6255109;22;20448;-85
2024/03/14 14:23:35;;;;;;;6.18;3.95;;;;;;;;;;6250174;22;20023;-85
2024/03/14 14:26:04;;;;;;;5.65;4.90;;;;;;;;;;6252700;22;20043;-85
2024/03/14 14:28:31;;;;;;;4.20;3.47;;;;;;;;;;6254068;22;20051;-84
2024/03/14 14:30:59;;;;;;;4.25;3.58;;;;;;;;;;6254265;22;20085;-86
2024/03/14 14:33:27;;;;;;;4.38;2.90;;;;;;;;;;6252184;22;20016;-85
2024/03/14 14:35:57;;;;;;;20.13;4.68;;;;;;;;;;6281588;22;20015;-83
2024/03/14 14:38:25;;;;;;;5.50;3.00;;;;;;;;;;6254664;22;20027;-86
2024/03/14 14:40:52;;;;;;;3.10;2.67;;;;;;;;;;6252170;22;20019;-85
2024/03/14 14:43:21;;;;;;;3.20;2.90;;;;;;;;;;6247831;22;20333;-85
2024/03/14 14:45:48;;;;;;;5.70;3.00;;;;;;;;;;6252018;22;20024;-84
2024/03/14 14:48:15;;;;;;;3.30;2.95;;;;;;;;;;6251834;22;20495;-87
2024/03/14 14:50:43;;;;;;;8.00;3.70;;;;;;;;;;6251707;22;20012;-86
2024/03/14 14:53:16;;;;;;;22.30;4.10;;;;;;;;;;6250166;22;20360;-86
2024/03/14 14:55:43;;;;;;;3.97;3.22;;;;;;;;;;6250433;22;20019;-86